createdAt,value
2018-08-06T00:04:03.420Z,10.35
2018-08-06T00:14:08.423Z,9.90
2018-08-06T00:24:13.389Z,9.65
2018-08-06T00:34:18.284Z,10.20
2018-08-06T00:44:23.282Z,9.80
2018-08-06T00:54:27.754Z,9.70
2018-08-06T01:04:32.621Z,9.28
2018-08-06T01:14:37.322Z,9.00
2018-08-06T01:24:41.997Z,9.90
2018-08-06T01:34:46.644Z,9.50
2018-08-06T01:44:51.432Z,9.60
2018-08-06T01:54:56.415Z,10.08
2018-08-06T02:05:01.167Z,9.85
2018-08-06T02:15:07.872Z,9.50
2018-08-06T02:25:13.006Z,9.58
2018-08-06T02:35:17.882Z,9.63
2018-08-06T02:45:22.607Z,9.78
2018-08-06T02:55:27.576Z,10.25
2018-08-06T03:05:32.443Z,9.90
2018-08-06T03:15:37.207Z,9.95
2018-08-06T03:25:42.005Z,9.85
2018-08-06T03:35:46.871Z,10.90
2018-08-06T03:45:51.835Z,10.43
2018-08-06T03:55:56.747Z,10.15
2018-08-06T04:06:01.646Z,10.80
2018-08-06T04:16:06.668Z,11.78
2018-08-06T04:26:11.206Z,10.88
2018-08-06T04:36:15.864Z,11.38
2018-08-06T04:46:21.225Z,10.90
2018-08-06T04:56:26.011Z,15.48
2018-08-06T05:06:30.723Z,14.35
2018-08-06T05:16:35.593Z,13.70
2018-08-06T05:26:40.351Z,11.68
2018-08-06T05:36:44.991Z,10.40
2018-08-06T05:46:49.848Z,9.08
2018-08-06T05:56:54.296Z,6.77
2018-08-06T06:06:59.099Z,7.13
2018-08-06T06:17:03.867Z,7.23
2018-08-06T06:27:08.540Z,5.83
2018-08-06T06:37:13.420Z,6.17
2018-08-06T06:47:18.863Z,6.95
2018-08-06T06:57:23.494Z,6.50
2018-08-06T07:07:28.232Z,7.23
2018-08-06T07:17:33.417Z,6.53
2018-08-06T07:27:38.459Z,7.17
2018-08-06T07:37:43.246Z,6.80
2018-08-06T07:47:49.139Z,7.80
2018-08-06T07:57:53.994Z,6.67
2018-08-06T08:07:58.858Z,7.33
2018-08-06T08:18:03.594Z,6.80
2018-08-06T08:28:08.488Z,6.97
2018-08-06T08:38:13.392Z,6.87
2018-08-06T08:48:18.165Z,6.90
2018-08-06T08:58:23.645Z,7.25
2018-08-06T09:08:28.025Z,7.33
2018-08-06T09:18:32.749Z,7.20
2018-08-06T09:28:37.546Z,8.07
2018-08-06T09:38:42.431Z,7.55
2018-08-06T09:48:47.279Z,8.18
2018-08-06T09:58:53.018Z,7.67
2018-08-06T10:08:58.616Z,7.80
2018-08-06T10:19:04.376Z,8.90
2018-08-06T10:29:09.834Z,8.50
2018-08-06T10:39:14.584Z,9.50
2018-08-06T10:49:19.490Z,9.35
2018-08-06T10:59:24.415Z,9.60
2018-08-06T11:09:29.566Z,8.85
2018-08-06T11:19:34.323Z,8.73
2018-08-06T11:29:39.419Z,8.88
2018-08-06T11:39:44.165Z,8.90
2018-08-06T11:49:48.950Z,9.58
2018-08-06T11:59:53.876Z,10.20
2018-08-06T12:09:58.734Z,9.40
2018-08-06T12:20:05.000Z,10.53
2018-08-06T12:30:15.619Z,11.00
2018-08-06T12:40:22.621Z,12.20
2018-08-06T12:50:27.436Z,11.30
2018-08-06T13:00:32.921Z,12.30
2018-08-06T13:10:37.774Z,9.95
2018-08-06T13:20:42.585Z,9.40
2018-08-06T13:30:47.254Z,8.80
2018-08-06T13:40:51.921Z,8.40
2018-08-06T13:50:56.802Z,7.97
2018-08-06T14:01:02.014Z,8.40
2018-08-06T14:11:07.255Z,7.28
2018-08-06T14:21:12.170Z,7.12
2018-08-06T14:31:16.955Z,7.03
2018-08-06T14:41:21.720Z,6.75
2018-08-06T14:51:26.074Z,6.87
2018-08-06T15:01:31.715Z,7.03
2018-08-06T15:11:36.587Z,6.47
2018-08-06T15:21:41.307Z,7.05
2018-08-06T15:31:46.343Z,6.65
2018-08-06T15:41:51.273Z,6.60
2018-08-06T15:51:56.209Z,6.87
2018-08-06T16:02:00.989Z,7.20
2018-08-06T16:12:05.851Z,8.13
2018-08-06T16:22:10.815Z,8.78
2018-08-06T16:32:15.801Z,9.58
2018-08-06T16:42:21.114Z,8.93
2018-08-06T16:52:26.242Z,9.50
2018-08-06T17:02:31.095Z,9.73
2018-08-06T17:12:41.362Z,9.20
2018-08-06T17:22:47.411Z,9.13
2018-08-06T17:32:52.201Z,8.38
2018-08-06T17:42:57.250Z,7.08
2018-08-06T17:53:02.110Z,6.72
2018-08-06T18:03:07.113Z,6.20
2018-08-06T18:13:11.893Z,5.90
2018-08-06T18:23:16.781Z,5.45
2018-08-06T18:33:22.656Z,5.53
2018-08-06T18:43:27.379Z,5.50
2018-08-06T18:53:33.013Z,5.40
2018-08-06T19:03:38.016Z,5.80
2018-08-06T19:13:47.832Z,5.55
2018-08-06T19:23:56.733Z,6.03
2018-08-06T19:34:01.598Z,9.40
2018-08-06T19:44:06.816Z,5.70
2018-08-06T19:54:11.690Z,7.70
2018-08-06T20:04:16.489Z,10.65
2018-08-06T20:14:21.261Z,6.58
2018-08-06T20:24:26.278Z,5.87
2018-08-06T20:34:31.542Z,7.47
2018-08-06T20:44:38.859Z,6.58
2018-08-06T20:54:43.689Z,5.70
2018-08-06T21:04:49.217Z,5.45
2018-08-06T21:14:53.969Z,6.37
2018-08-06T21:24:58.916Z,5.80
2018-08-06T21:35:04.005Z,5.17
2018-08-06T21:45:08.680Z,10.45
2018-08-06T21:55:14.709Z,8.18
2018-08-06T22:05:19.460Z,9.63
